createdAt,value
2022-09-02T03:18:20.925Z,6.80
2022-09-02T03:21:36.187Z,6.07
2022-09-02T03:24:49.524Z,5.30
2022-09-02T03:28:00.325Z,7.23
2022-09-02T03:31:16.501Z,7.87
2022-09-02T03:34:27.360Z,7.27
2022-09-02T03:37:39.993Z,7.30
2022-09-02T03:40:49.814Z,7.10
2022-09-02T03:43:59.361Z,5.43
2022-09-02T03:47:11.132Z,6.10
2022-09-02T03:50:26.376Z,6.83
2022-09-02T03:53:36.795Z,6.33
2022-09-02T03:56:46.841Z,5.77
2022-09-02T03:59:57.677Z,6.50
2022-09-02T04:03:07.583Z,6.27
2022-09-02T04:06:20.374Z,5.60
2022-09-02T04:09:30.152Z,5.30
2022-09-02T04:12:40.588Z,6.50
2022-09-02T04:15:50.391Z,6.20
2022-09-02T04:19:04.236Z,6.27
2022-09-02T04:22:16.164Z,6.47
2022-09-02T04:25:27.943Z,6.47
2022-09-02T04:28:38.678Z,6.93
2022-09-02T04:31:48.439Z,7.33
2022-09-02T04:34:58.159Z,6.40
2022-09-02T04:38:10.584Z,5.80
2022-09-02T04:41:22.700Z,7.10
2022-09-02T04:44:33.437Z,7.00
2022-09-02T04:47:42.967Z,6.73
2022-09-02T04:50:56.833Z,8.10
2022-09-02T04:54:09.511Z,6.40
2022-09-02T04:57:21.445Z,6.07
2022-09-02T06:43:44.539Z,7.40
2022-09-02T06:47:03.329Z,7.67
2022-09-02T06:50:14.537Z,7.37
2022-09-02T06:53:25.205Z,7.67
2022-09-02T06:56:36.209Z,7.60
2022-09-02T06:59:47.512Z,7.07
2022-09-02T07:03:10.000Z,7.13
2022-09-02T07:06:22.540Z,5.53
2022-09-02T07:09:34.866Z,5.67
2022-09-02T07:12:51.350Z,5.10
2022-09-02T07:16:03.517Z,5.50
2022-09-02T07:19:18.523Z,5.50
2022-09-02T07:22:30.816Z,4.27
2022-09-02T07:25:41.051Z,4.90
2022-09-02T07:28:52.503Z,4.30
2022-09-02T07:32:05.149Z,4.40
2022-09-02T07:35:14.853Z,3.93
2022-09-02T07:38:24.639Z,3.40
2022-09-02T07:41:35.790Z,3.47
2022-09-02T07:44:45.425Z,3.33
2022-09-02T07:47:57.130Z,3.07
2022-09-02T07:51:08.028Z,2.70
2022-09-02T07:54:26.682Z,2.20
2022-09-02T07:57:37.208Z,2.13
2022-09-02T08:00:47.592Z,2.60
2022-09-02T08:04:02.699Z,2.03
2022-09-02T08:07:23.891Z,2.03
2022-09-02T08:10:33.618Z,1.77
2022-09-02T08:13:43.076Z,1.77
2022-09-02T08:16:53.725Z,1.60
2022-09-02T08:20:07.276Z,1.47
2022-09-02T08:23:35.538Z,1.60
2022-09-02T08:26:46.884Z,1.40
2022-09-02T08:29:56.956Z,1.80
2022-09-02T08:33:06.908Z,1.50
2022-09-02T08:36:17.646Z,1.53
2022-09-02T08:39:27.146Z,1.77
2022-09-02T08:42:39.281Z,1.77
2022-09-02T08:45:49.820Z,1.60
2022-09-02T08:49:01.634Z,1.60
2022-09-02T08:52:22.020Z,1.83
2022-09-02T08:55:36.782Z,1.70
2022-09-02T08:58:52.717Z,1.53
2022-09-02T09:02:17.803Z,1.43
2022-09-02T09:05:39.718Z,1.70
2022-09-02T09:08:59.344Z,1.57
2022-09-02T09:12:16.757Z,2.10
2022-09-02T09:15:37.836Z,1.63
2022-09-02T09:18:55.315Z,1.57
2022-09-02T09:22:05.171Z,1.70
2022-09-02T09:25:18.278Z,1.90
2022-09-02T09:28:28.613Z,1.50
2022-09-02T09:31:38.610Z,1.40
2022-09-02T09:34:59.897Z,1.40
2022-09-02T09:38:13.848Z,1.70
2022-09-02T09:41:25.436Z,1.50
2022-09-02T09:44:38.380Z,1.77
2022-09-02T09:48:18.396Z,1.83
2022-09-02T09:51:27.818Z,1.30
2022-09-02T09:54:37.402Z,1.70
2022-09-02T09:57:50.518Z,1.60
2022-09-02T10:01:12.262Z,1.20
2022-09-02T10:04:42.916Z,1.20
2022-09-02T10:07:55.510Z,1.60
2022-09-02T10:11:20.327Z,1.30
2022-09-02T10:14:35.550Z,1.40
2022-09-02T10:17:54.369Z,1.50
2022-09-02T10:21:15.358Z,1.60
2022-09-02T10:24:42.623Z,1.33
2022-09-02T10:28:01.177Z,0.93
2022-09-02T10:31:18.648Z,1.50
2022-09-02T10:34:37.803Z,1.40
2022-09-02T10:38:01.593Z,1.20
2022-09-02T10:41:26.842Z,1.50
2022-09-02T10:44:47.238Z,1.40
2022-09-02T10:48:12.853Z,1.00
2022-09-02T10:51:33.423Z,1.30
2022-09-02T10:54:53.224Z,1.70
2022-09-02T10:58:10.458Z,1.40
2022-09-02T11:01:25.017Z,1.20
2022-09-02T11:04:41.294Z,1.33
2022-09-02T11:07:57.172Z,1.30
2022-09-02T11:11:12.074Z,1.77
2022-09-02T11:14:25.265Z,2.53
2022-09-02T11:17:40.244Z,1.77
2022-09-02T11:20:58.152Z,1.10
2022-09-02T11:24:15.253Z,1.23
2022-09-02T11:27:42.108Z,1.40
2022-09-02T11:30:57.067Z,1.23
2022-09-02T11:34:18.005Z,1.30
2022-09-02T11:37:36.638Z,1.20
2022-09-02T11:44:56.447Z,1.47
2022-09-02T11:48:33.071Z,1.30
2022-09-02T11:51:57.380Z,1.17
2022-09-02T11:55:17.293Z,1.23
2022-09-02T11:58:33.273Z,1.20
2022-09-02T12:01:49.731Z,1.23
2022-09-02T12:05:41.912Z,1.30
2022-09-02T12:09:04.520Z,1.07
2022-09-02T12:53:33.848Z,1.10
2022-09-02T12:56:49.042Z,1.30
2022-09-02T13:00:00.625Z,1.13
2022-09-02T13:03:32.702Z,1.10
2022-09-02T13:06:59.658Z,1.10
2022-09-02T13:10:29.315Z,1.20
2022-09-02T13:14:00.801Z,1.13
2022-09-02T13:17:36.147Z,1.13
2022-09-02T13:21:04.157Z,0.83
2022-09-02T13:24:41.589Z,1.10
2022-09-02T13:28:06.416Z,1.17
2022-09-02T13:31:25.468Z,1.00
2022-09-02T13:34:34.923Z,1.60
2022-09-02T13:37:45.681Z,1.23
2022-09-02T13:40:55.659Z,1.10
2022-09-02T13:44:09.453Z,1.10
2022-09-02T13:47:20.886Z,1.10
2022-09-02T13:50:32.385Z,1.23
2022-09-02T13:53:45.615Z,1.07
2022-09-02T13:57:12.757Z,1.20
2022-09-02T14:00:32.433Z,1.07
2022-09-02T14:03:48.468Z,1.10
2022-09-02T14:06:59.436Z,1.10
2022-09-02T14:10:12.105Z,1.00
2022-09-02T14:13:23.153Z,1.27
2022-09-02T14:16:35.828Z,1.03
2022-09-02T14:19:45.363Z,0.87
2022-09-02T14:23:05.602Z,1.40
2022-09-02T14:26:24.321Z,0.93
2022-09-02T14:29:34.169Z,0.83
2022-09-02T14:32:44.921Z,1.10
2022-09-02T14:35:59.860Z,0.90
2022-09-02T14:39:13.852Z,1.00
2022-09-02T14:42:24.730Z,1.10
2022-09-02T14:45:36.710Z,0.80
2022-09-02T14:48:55.689Z,1.20
2022-09-02T14:52:16.028Z,1.30
2022-09-02T14:55:44.342Z,3.33
2022-09-02T14:58:53.808Z,1.97
2022-09-02T15:02:03.433Z,1.33
2022-09-02T15:05:15.145Z,1.37
2022-09-02T15:08:24.866Z,1.00
2022-09-02T15:11:34.508Z,1.20
2022-09-02T15:14:43.957Z,1.17
2022-09-02T15:17:53.805Z,1.00
2022-09-02T15:21:05.279Z,0.93
2022-09-02T15:24:14.883Z,1.00
2022-09-02T15:27:24.572Z,0.80
2022-09-02T15:30:35.992Z,1.00
2022-09-02T15:33:50.717Z,0.83
2022-09-02T15:37:01.839Z,1.20
2022-09-02T15:40:12.136Z,0.93
2022-09-02T15:43:21.988Z,1.20
2022-09-02T15:46:36.465Z,1.10
2022-09-02T15:49:46.156Z,0.93
2022-09-02T15:52:56.867Z,1.23
2022-09-02T15:56:15.788Z,1.00
2022-09-02T15:59:26.334Z,0.70
2022-09-02T16:02:35.903Z,1.20
2022-09-02T16:05:45.743Z,0.90
2022-09-02T16:08:57.733Z,1.00
2022-09-02T16:12:07.419Z,1.00
2022-09-02T16:15:16.903Z,1.10
2022-09-02T16:18:28.403Z,0.90
2022-09-02T16:21:40.881Z,0.90
2022-09-02T16:24:51.839Z,1.13
2022-09-02T16:28:02.633Z,1.10
2022-09-02T16:31:17.108Z,1.10
2022-09-02T16:34:26.763Z,0.97
2022-09-02T16:37:36.309Z,0.80
2022-09-02T16:40:52.037Z,0.97
2022-09-02T16:44:03.421Z,0.87
2022-09-02T16:47:13.888Z,1.00
2022-09-02T16:50:23.849Z,1.00
2022-09-02T16:53:33.842Z,1.10
2022-09-02T16:56:44.613Z,0.90
2022-09-02T16:59:54.046Z,1.00
2022-09-02T17:03:03.685Z,0.90
2022-09-02T17:06:14.023Z,0.90
2022-09-02T17:09:23.565Z,1.00
2022-09-02T17:12:34.356Z,1.10
2022-09-02T17:15:44.020Z,0.90
2022-09-02T17:18:53.810Z,1.00
2022-09-02T17:22:03.512Z,1.00
2022-09-02T17:25:13.795Z,0.97
2022-09-02T17:28:29.239Z,1.23
2022-09-02T17:31:39.376Z,1.10
2022-09-02T17:34:50.794Z,0.90
2022-09-02T17:38:00.914Z,0.90
2022-09-02T17:41:24.678Z,1.03
2022-09-02T17:44:38.359Z,1.23
2022-09-02T17:47:48.095Z,1.20
2022-09-02T17:50:57.525Z,0.97
2022-09-02T17:54:08.065Z,1.00
2022-09-02T17:57:28.082Z,0.90
2022-09-02T18:00:41.817Z,1.20
2022-09-02T18:04:06.960Z,1.27
2022-09-02T18:07:27.561Z,1.20
2022-09-02T18:10:39.048Z,1.00
2022-09-02T18:13:54.839Z,1.40
2022-09-02T18:17:16.702Z,1.10
2022-09-02T18:20:39.970Z,1.00
2022-09-02T18:24:01.734Z,1.23
2022-09-02T18:27:20.496Z,1.20
2022-09-02T18:30:38.854Z,1.00
2022-09-02T18:34:04.169Z,1.27
2022-09-02T18:37:30.039Z,1.13
2022-09-02T18:40:49.152Z,1.27
2022-09-02T18:44:10.793Z,1.20
2022-09-02T18:47:23.347Z,1.17
2022-09-02T18:50:49.561Z,0.93
2022-09-02T18:54:08.212Z,1.00
2022-09-02T18:57:17.987Z,1.10
2022-09-02T19:00:29.176Z,0.90
2022-09-02T19:03:38.965Z,1.00
2022-09-02T19:06:50.470Z,0.80
2022-09-02T19:10:01.103Z,1.17
2022-09-02T19:13:10.697Z,1.10
2022-09-02T19:16:22.804Z,1.07
2022-09-02T19:19:35.092Z,1.00
2022-09-02T19:22:51.012Z,0.97
2022-09-02T19:26:00.652Z,1.13
2022-09-02T19:29:13.104Z,1.00
2022-09-02T19:32:27.856Z,1.30
2022-09-02T19:35:38.384Z,1.30
2022-09-02T19:38:49.405Z,1.13
2022-09-02T19:41:59.573Z,1.00
2022-09-02T19:45:12.960Z,1.10
2022-09-02T19:48:25.357Z,1.00
2022-09-02T19:51:36.193Z,1.33
2022-09-02T19:54:48.547Z,1.10
2022-09-02T19:58:00.167Z,1.20
2022-09-02T20:01:09.790Z,1.03
2022-09-02T20:04:20.006Z,1.13
2022-09-02T20:07:29.526Z,1.37
2022-09-02T20:10:41.594Z,1.33
2022-09-02T20:13:51.188Z,1.23
2022-09-02T20:17:05.860Z,1.00
2022-09-02T20:20:19.599Z,1.00
2022-09-02T20:23:30.513Z,1.20
2022-09-02T20:26:51.845Z,1.20
2022-09-02T20:30:08.694Z,1.40
2022-09-02T20:33:20.909Z,1.07
2022-09-02T20:36:37.818Z,1.40
2022-09-02T20:40:03.335Z,1.20
2022-09-02T20:43:35.249Z,1.13
2022-09-02T20:47:02.285Z,1.00
2022-09-02T20:50:27.247Z,1.07
2022-09-02T20:53:48.453Z,1.10
2022-09-02T20:57:11.019Z,1.27
2022-09-02T21:00:21.960Z,1.30
2022-09-02T21:03:41.571Z,1.40
2022-09-02T21:06:57.606Z,1.47
2022-09-02T21:10:12.406Z,1.40
2022-09-02T21:13:34.776Z,1.30
2022-09-02T21:16:49.789Z,1.50
2022-09-02T21:20:08.004Z,1.30
2022-09-02T21:23:24.034Z,1.17
2022-09-02T21:26:42.510Z,1.40
2022-09-02T21:30:02.319Z,1.30
2022-09-02T21:33:16.904Z,1.30
2022-09-02T21:36:30.148Z,1.50
2022-09-02T21:39:46.843Z,1.20
2022-09-02T21:43:12.942Z,1.37
2022-09-02T21:46:32.112Z,1.37
2022-09-02T21:50:02.612Z,1.50
2022-09-02T21:53:21.432Z,1.50
2022-09-02T21:56:48.874Z,1.43
2022-09-02T22:00:01.737Z,1.40
2022-09-02T22:03:16.180Z,1.43
2022-09-02T22:06:34.440Z,1.37
2022-09-02T22:09:44.633Z,1.30
2022-09-02T22:12:58.491Z,1.40
2022-09-02T22:16:17.564Z,1.20
2022-09-02T22:19:30.885Z,1.50
2022-09-02T22:22:53.099Z,1.40
2022-09-02T22:26:15.371Z,1.30
2022-09-02T22:29:36.464Z,1.50
2022-09-02T22:32:49.491Z,1.37
2022-09-02T22:36:05.053Z,1.20
2022-09-02T22:39:17.057Z,1.40
2022-09-02T22:42:33.729Z,1.30
2022-09-02T22:46:00.792Z,1.50
2022-09-02T22:49:25.721Z,1.20
2022-09-02T22:52:49.593Z,1.40
2022-09-02T22:56:03.206Z,1.30
2022-09-02T22:59:29.513Z,1.67
2022-09-02T23:02:45.962Z,1.60
